This is the latest recevied weather packets stored in our database for station/object DB0HRC-6. If no packets are shown the sender has not sent any weather packets the latest 1 day(s).
| Time | Temp. | Humidity | Pressure | Rain* | Wind** | Luminosity | Snow |
|---|---|---|---|---|---|---|---|
| 1778082314 | 16.67° C | 74% | 1000.7 hPa | 0 mm | - | - | - |
| 1778080514 | 17.22° C | 71% | 1000.5 hPa | 0 mm | - | - | - |
| 1778079614 | 17.78° C | 67% | 1000.7 hPa | 0 mm | - | - | - |
| 1778077814 | 17.78° C | 68% | 1000.9 hPa | 0 mm | - | - | - |
| 1778075114 | 17.78° C | 67% | 1001.1 hPa | 0 mm | - | - | - |
| 1778074214 | 17.78° C | 69% | 1000.9 hPa | 0 mm | - | - | - |
| 1778069716 | 16.67° C | 70% | 1001.3 hPa | 0 mm | - | - | - |
| 1778067914 | 19.44° C | 59% | 1001.1 hPa | 0 mm | - | - | - |
| 1778065214 | 16.67° C | 68% | 1001.3 hPa | 0 mm | - | - | - |
| 1778063414 | 17.22° C | 68% | 1001.4 hPa | 0 mm | - | - | - |
| 1778061614 | 16.67° C | 73% | 1001.4 hPa | 0 mm | - | - | - |
| 1778059814 | 16.11° C | 71% | 1001.2 hPa | 0 mm | - | - | - |
| 1778057114 | 15° C | 77% | 1001.1 hPa | 0 mm | - | - | - |
| 1778056214 | 14.44° C | 78% | 1001.1 hPa | 0 mm | - | - | - |
| 1778054414 | 13.89° C | 83% | 1001 hPa | 0 mm | - | - | - |
| 1778052614 | 12.78° C | 85% | 1001 hPa | 0 mm | - | - | - |
| 1778051715 | 12.78° C | 86% | 1000.7 hPa | 0 mm | - | - | - |
| 1778050814 | 12.78° C | 87% | 1001 hPa | 0 mm | - | - | - |
| 1778049914 | 12.22° C | 87% | 1000.8 hPa | 0 mm | - | - | - |
| 1778048114 | 12.78° C | 87% | 1000.8 hPa | 0 mm | - | - | - |
| 1778045415 | 12.22° C | 88% | 1000.5 hPa | 0 mm | - | - | - |
| 1778042714 | 12.22° C | 90% | 1000.1 hPa | 0 mm | - | - | - |
| 1778041814 | 12.22° C | 90% | 1000 hPa | 0 mm | - | - | - |
| 1778039114 | 12.22° C | 90% | 999.8 hPa | 0 mm | - | - | - |
| 1778038214 | 12.22° C | 90% | 999.8 hPa | 0 mm | - | - | - |
* Rain latest hour (hover to see other rain measurements)
** Current wind speed in m/s (hover to see current wind gust speed)